Time;durP1;ratioP1;P1;durP2;ratioP2;P2;SDS_P1;SDS_P2;PMS_P1;PMS_P2;Temp;Humidity;BMP_temperature;BMP_pressure;BME280_temperature;BME280_humidity;BME280_pressure;Samples;Min_cycle;Max_cycle;Signal;HPM_P1;HPM_P2
2022/11/09 00:01:36;;;;;;;31.05;15.32;;;;;;;;;;1745911;81;21052;-65
2022/11/09 00:04:02;;;;;;;24.90;13.60;;;;;;;;;;1744128;80;21508;-65
2022/11/09 00:06:29;;;;;;;24.47;14.15;;;;;;;;;;1778105;80;21047;-65
2022/11/09 00:08:55;;;;;;;19.60;12.47;;;;;;;;;;1747536;81;21069;-64
2022/11/09 00:11:21;;;;;;;22.70;13.35;;;;;;;;;;1752109;81;21031;-65
2022/11/09 00:13:47;;;;;;;19.23;11.88;;;;;;;;;;1775628;80;21074;-65
2022/11/09 00:16:15;;;;;;;21.60;12.43;;;;;;;;;;1749445;81;21357;-64
2022/11/09 00:18:47;;;;;;;19.60;11.25;;;;;;;;;;1751393;81;21015;-65
2022/11/09 00:21:18;;;;;;;19.02;11.12;;;;;;;;;;1750804;81;21115;-63
2022/11/09 00:23:45;;;;;;;22.42;11.88;;;;;;;;;;1758346;80;21128;-66
2022/11/09 00:26:13;;;;;;;18.45;11.00;;;;;;;;;;1746210;80;21299;-65
2022/11/09 00:28:41;;;;;;;19.02;11.68;;;;;;;;;;1756136;80;21548;-64
2022/11/09 00:31:09;;;;;;;19.37;11.70;;;;;;;;;;1786121;79;21046;-64
2022/11/09 00:33:37;;;;;;;21.62;12.03;;;;;;;;;;1786472;79;20985;-65
2022/11/09 00:36:08;;;;;;;17.45;11.57;;;;;;;;;;1757565;81;21068;-65
2022/11/09 00:38:34;;;;;;;21.45;11.38;;;;;;;;;;1789462;78;20991;-64
2022/11/09 00:41:02;;;;;;;19.07;10.88;;;;;;;;;;1787490;79;21586;-64
2022/11/09 00:43:29;;;;;;;21.17;12.28;;;;;;;;;;1765811;80;21034;-65
2022/11/09 00:45:57;;;;;;;21.73;12.03;;;;;;;;;;1768160;80;21123;-64
2022/11/09 00:48:23;;;;;;;18.23;11.25;;;;;;;;;;1759587;80;21043;-65
2022/11/09 00:50:50;;;;;;;17.42;10.82;;;;;;;;;;1761112;80;21492;-64
2022/11/09 00:53:16;;;;;;;19.05;10.80;;;;;;;;;;1789220;78;20964;-64
2022/11/09 00:55:42;;;;;;;17.62;10.40;;;;;;;;;;1757704;80;21031;-66
2022/11/09 00:58:09;;;;;;;16.80;10.53;;;;;;;;;;1754967;80;21034;-67
2022/11/09 01:00:36;;;;;;;19.62;9.93;;;;;;;;;;1760702;79;22217;-64
2022/11/09 01:03:02;;;;;;;15.60;10.10;;;;;;;;;;1785300;78;21013;-64
2022/11/09 01:05:28;;;;;;;18.23;10.32;;;;;;;;;;1787807;78;21096;-64
2022/11/09 01:07:54;;;;;;;18.65;10.48;;;;;;;;;;1765793;80;21021;-64
2022/11/09 01:10:22;;;;;;;17.45;10.25;;;;;;;;;;1783633;79;21056;-64
2022/11/09 01:12:49;;;;;;;16.97;9.48;;;;;;;;;;1755616;80;21062;-64
2022/11/09 01:15:16;;;;;;;16.80;9.48;;;;;;;;;;1754540;81;21120;-64
2022/11/09 01:17:42;;;;;;;17.45;10.32;;;;;;;;;;1785612;78;20971;-64
2022/11/09 01:20:09;;;;;;;18.07;10.00;;;;;;;;;;1759974;80;21575;-65
2022/11/09 01:22:36;;;;;;;15.35;9.50;;;;;;;;;;1756968;81;21134;-66
2022/11/09 01:25:04;;;;;;;18.62;10.13;;;;;;;;;;1790768;78;21042;-65
2022/11/09 01:27:30;;;;;;;17.45;9.98;;;;;;;;;;1776094;80;21012;-64
2022/11/09 01:29:56;;;;;;;14.83;9.05;;;;;;;;;;1792788;79;21523;-64
2022/11/09 01:32:24;;;;;;;16.12;9.55;;;;;;;;;;1790164;79;21036;-65
2022/11/09 01:34:51;;;;;;;15.55;9.53;;;;;;;;;;1791793;78;21048;-65
2022/11/09 01:37:17;;;;;;;15.75;8.95;;;;;;;;;;1760168;80;21015;-65
2022/11/09 01:39:44;;;;;;;13.18;8.45;;;;;;;;;;1792251;79;21581;-65
2022/11/09 01:42:10;;;;;;;19.40;9.53;;;;;;;;;;1773003;79;21008;-65
2022/11/09 01:44:37;;;;;;;15.75;8.45;;;;;;;;;;1758747;80;21000;-65
2022/11/09 01:47:07;;;;;;;16.70;8.53;;;;;;;;;;1789464;78;21031;-65
2022/11/09 01:49:47;;;;;;;14.85;8.85;;;;;;;;;;1733247;81;21035;-65
2022/11/09 01:52:16;;;;;;;16.82;9.05;;;;;;;;;;1762189;80;21526;-66
2022/11/09 01:54:47;;;;;;;17.95;9.83;;;;;;;;;;1773485;79;20998;-65
2022/11/09 01:57:21;;;;;;;14.58;7.97;;;;;;;;;;1765719;80;21507;-66
2022/11/09 01:59:49;;;;;;;15.23;8.30;;;;;;;;;;1772876;79;21016;-68
2022/11/09 02:05:10;;;;;;;16.25;9.05;;;;;;;;;;1724747;81;75273;-64
2022/11/09 02:07:36;;;;;;;15.72;9.13;;;;;;;;;;1711825;82;21045;-63
2022/11/09 02:10:05;;;;;;;16.37;8.75;;;;;;;;;;1732614;81;21506;-64
2022/11/09 02:12:32;;;;;;;16.70;9.20;;;;;;;;;;1731679;83;21035;-64
2022/11/09 02:14:59;;;;;;;19.42;8.60;;;;;;;;;;1736692;81;21115;-63
2022/11/09 02:17:26;;;;;;;12.95;7.92;;;;;;;;;;1702261;84;21063;-64
2022/11/09 02:19:55;;;;;;;11.60;7.60;;;;;;;;;;1698685;84;21048;-64
2022/11/09 02:22:21;;;;;;;15.20;8.58;;;;;;;;;;1711395;84;21037;-64
2022/11/09 02:24:48;;;;;;;12.88;7.83;;;;;;;;;;1742210;81;21506;-64
2022/11/09 02:27:18;;;;;;;13.48;7.75;;;;;;;;;;1739996;81;21063;-64
2022/11/09 02:29:44;;;;;;;13.18;7.95;;;;;;;;;;1744773;81;21015;-64
2022/11/09 02:32:15;;;;;;;13.25;7.45;;;;;;;;;;1726785;82;21032;-64
2022/11/09 02:34:43;;;;;;;12.37;7.80;;;;;;;;;;1708646;82;21092;-64
2022/11/09 02:37:10;;;;;;;12.50;8.13;;;;;;;;;;1721989;83;21056;-64
2022/11/09 02:39:36;;;;;;;13.98;7.53;;;;;;;;;;1729129;83;21056;-64
2022/11/09 02:42:04;;;;;;;13.45;7.90;;;;;;;;;;1732527;83;21056;-63
2022/11/09 02:44:33;;;;;;;13.05;7.62;;;;;;;;;;1734628;81;21034;-63
2022/11/09 02:46:59;;;;;;;11.38;6.97;;;;;;;;;;1753442;81;21048;-64
2022/11/09 02:49:26;;;;;;;12.53;6.50;;;;;;;;;;1729356;83;21033;-64
2022/11/09 02:51:54;;;;;;;12.13;7.03;;;;;;;;;;1700131;84;21084;-63
2022/11/09 02:54:21;;;;;;;12.18;6.37;;;;;;;;;;1732560;83;21035;-64
2022/11/09 02:56:48;;;;;;;10.05;6.22;;;;;;;;;;1731933;83;21051;-63
2022/11/09 02:59:14;;;;;;;8.93;5.85;;;;;;;;;;1730537;83;21086;-64
2022/11/09 03:01:41;;;;;;;9.08;6.00;;;;;;;;;;1708870;84;20990;-64
2022/11/09 03:04:07;;;;;;;11.57;6.45;;;;;;;;;;1694271;84;21576;-63
2022/11/09 03:06:35;;;;;;;10.30;6.45;;;;;;;;;;1693805;82;21084;-64
2022/11/09 03:09:04;;;;;;;10.15;5.95;;;;;;;;;;1705252;83;21062;-64
2022/11/09 03:11:31;;;;;;;11.70;6.75;;;;;;;;;;1688798;84;21072;-64
2022/11/09 03:13:58;;;;;;;12.28;6.35;;;;;;;;;;1702383;83;21508;-64
2022/11/09 03:16:26;;;;;;;9.10;6.15;;;;;;;;;;1736823;82;21090;-64
2022/11/09 03:18:52;;;;;;;9.38;6.00;;;;;;;;;;1683482;85;21135;-64
2022/11/09 03:21:20;;;;;;;9.50;5.80;;;;;;;;;;1709922;83;21036;-64
2022/11/09 03:23:47;;;;;;;9.88;5.78;;;;;;;;;;1728187;83;20980;-64
2022/11/09 03:26:14;;;;;;;9.43;6.25;;;;;;;;;;1727819;83;21577;-64
2022/11/09 03:28:41;;;;;;;9.03;5.72;;;;;;;;;;1699648;83;21548;-64
2022/11/09 03:31:08;;;;;;;9.40;5.80;;;;;;;;;;1704639;83;21047;-64
2022/11/09 03:33:35;;;;;;;11.55;6.15;;;;;;;;;;1722594;83;21483;-64
2022/11/09 03:36:01;;;;;;;8.40;5.53;;;;;;;;;;1727464;83;21008;-64
2022/11/09 03:38:28;;;;;;;9.95;6.35;;;;;;;;;;1728378;83;21011;-64
2022/11/09 03:40:55;;;;;;;10.70;7.03;;;;;;;;;;1704637;83;21500;-65
2022/11/09 03:43:21;;;;;;;13.18;6.42;;;;;;;;;;1695447;83;21633;-64
2022/11/09 03:45:47;;;;;;;9.65;5.95;;;;;;;;;;1715881;83;21023;-65
2022/11/09 03:48:13;;;;;;;9.03;5.65;;;;;;;;;;1722487;83;21108;-64
2022/11/09 03:50:40;;;;;;;9.10;5.60;;;;;;;;;;1712802;83;21597;-64
2022/11/09 03:53:08;;;;;;;8.90;5.60;;;;;;;;;;1708383;83;21078;-64
2022/11/09 03:55:35;;;;;;;7.22;4.90;;;;;;;;;;1718751;83;21083;-64
2022/11/09 03:58:02;;;;;;;9.60;5.90;;;;;;;;;;1714551;83;20988;-64
2022/11/09 04:00:28;;;;;;;8.68;5.33;;;;;;;;;;1716329;83;21506;-63
2022/11/09 04:02:55;;;;;;;8.15;5.45;;;;;;;;;;1707177;83;21059;-63
2022/11/09 04:05:22;;;;;;;10.05;5.67;;;;;;;;;;1709215;83;21092;-64
2022/11/09 04:07:48;;;;;;;10.23;6.37;;;;;;;;;;1725802;83;21597;-63
2022/11/09 04:10:15;;;;;;;9.78;5.83;;;;;;;;;;1727679;83;21000;-66
2022/11/09 04:12:42;;;;;;;10.82;6.83;;;;;;;;;;1694503;83;21028;-66
2022/11/09 04:15:09;;;;;;;8.28;5.40;;;;;;;;;;1705194;83;20992;-65
2022/11/09 04:17:36;;;;;;;8.23;5.58;;;;;;;;;;1713293;83;21506;-66
2022/11/09 04:20:02;;;;;;;10.98;6.20;;;;;;;;;;1706577;83;21066;-65
2022/11/09 04:22:29;;;;;;;8.80;5.22;;;;;;;;;;1702765;83;21076;-65
2022/11/09 04:24:55;;;;;;;9.70;6.33;;;;;;;;;;1724025;83;21058;-67
2022/11/09 04:27:21;;;;;;;10.35;6.15;;;;;;;;;;1705621;83;21015;-66
2022/11/09 04:29:48;;;;;;;10.55;5.90;;;;;;;;;;1728749;83;21020;-65
2022/11/09 04:32:13;;;;;;;11.22;6.15;;;;;;;;;;1722587;83;21107;-66
2022/11/09 04:34:42;;;;;;;8.23;5.45;;;;;;;;;;1694966;83;21044;-64
2022/11/09 04:37:08;;;;;;;14.75;7.75;;;;;;;;;;1725174;83;22293;-64
2022/11/09 04:39:35;;;;;;;12.25;8.53;;;;;;;;;;1725142;83;21011;-65
2022/11/09 04:42:01;;;;;;;13.85;7.80;;;;;;;;;;1716853;83;21055;-64
2022/11/09 04:44:28;;;;;;;11.10;7.47;;;;;;;;;;1726236;83;21492;-64
2022/11/09 04:46:55;;;;;;;13.72;7.80;;;;;;;;;;1707866;83;21565;-64
2022/11/09 04:49:20;;;;;;;9.60;6.62;;;;;;;;;;1715927;83;21039;-64
2022/11/09 04:51:46;;;;;;;11.73;6.60;;;;;;;;;;1720028;83;20988;-64
2022/11/09 04:54:12;;;;;;;10.53;5.90;;;;;;;;;;1728463;83;21015;-65
2022/11/09 04:56:39;;;;;;;9.78;6.28;;;;;;;;;;1727845;83;21039;-64
2022/11/09 04:59:05;;;;;;;11.35;6.83;;;;;;;;;;1702292;83;21021;-63
2022/11/09 05:01:31;;;;;;;8.50;5.90;;;;;;;;;;1696343;83;21552;-64
2022/11/09 05:03:57;;;;;;;9.78;5.85;;;;;;;;;;1693976;85;21036;-65
2022/11/09 05:06:32;;;;;;;11.08;6.45;;;;;;;;;;1717981;83;21020;-65
2022/11/09 05:09:03;;;;;;;10.82;7.00;;;;;;;;;;1726549;83;21012;-65
2022/11/09 05:11:31;;;;;;;10.80;7.37;;;;;;;;;;1727122;83;21027;-64
2022/11/09 05:13:58;;;;;;;12.00;6.85;;;;;;;;;;1703440;83;21044;-65
2022/11/09 05:16:25;;;;;;;12.03;6.85;;;;;;;;;;1716992;83;21043;-64
2022/11/09 05:18:52;;;;;;;10.60;6.55;;;;;;;;;;1699573;83;21506;-63
2022/11/09 05:21:20;;;;;;;10.60;6.55;;;;;;;;;;1711706;83;21088;-64
2022/11/09 05:23:58;;;;;;;9.40;6.08;;;;;;;;;;1715007;83;21039;-64
2022/11/09 05:26:26;;;;;;;9.13;6.35;;;;;;;;;;1727515;83;22070;-64
2022/11/09 05:28:52;;;;;;;10.25;6.67;;;;;;;;;;1727063;83;21043;-64
2022/11/09 05:31:20;;;;;;;10.88;7.30;;;;;;;;;;1714436;83;21040;-64
2022/11/09 05:33:50;;;;;;;9.10;6.17;;;;;;;;;;1693296;83;21087;-65
2022/11/09 05:36:16;;;;;;;10.80;6.70;;;;;;;;;;1712749;83;21027;-64
2022/11/09 05:38:42;;;;;;;12.07;7.20;;;;;;;;;;1727948;83;21481;-64
2022/11/09 05:41:08;;;;;;;10.53;6.47;;;;;;;;;;1728114;83;21011;-64
2022/11/09 05:43:34;;;;;;;9.63;7.33;;;;;;;;;;1698158;83;21055;-65
2022/11/09 05:46:00;;;;;;;11.50;7.05;;;;;;;;;;1707474;83;21051;-64
2022/11/09 05:48:27;;;;;;;9.78;6.75;;;;;;;;;;1710543;83;21174;-64
2022/11/09 05:50:53;;;;;;;12.00;7.55;;;;;;;;;;1693364;83;21072;-65
2022/11/09 05:53:24;;;;;;;11.80;7.53;;;;;;;;;;1719336;83;21047;-64
2022/11/09 05:55:51;;;;;;;13.68;7.20;;;;;;;;;;1718170;83;21055;-64
2022/11/09 05:58:17;;;;;;;10.65;7.15;;;;;;;;;;1715002;83;21011;-64
2022/11/09 06:41:53;;;;;;;17.73;11.20;;;;;;;;;;1818929;77;22143;-63
2022/11/09 06:44:19;;;;;;;17.00;11.60;;;;;;;;;;1787653;80;21039;-63
2022/11/09 06:46:47;;;;;;;19.48;11.20;;;;;;;;;;1775440;80;21592;-63
2022/11/09 06:49:13;;;;;;;18.77;12.28;;;;;;;;;;1776545;80;20972;-62
2022/11/09 06:51:40;;;;;;;18.90;11.83;;;;;;;;;;1745122;81;20985;-62
2022/11/09 06:54:06;;;;;;;22.20;14.13;;;;;;;;;;1697769;84;21110;-63
2022/11/09 06:56:33;;;;;;;24.30;14.05;;;;;;;;;;1727578;81;21087;-62
2022/11/09 06:58:59;;;;;;;22.58;13.62;;;;;;;;;;1729593;81;21052;-62
2022/11/09 07:01:26;;;;;;;26.00;13.90;;;;;;;;;;1732486;81;21016;-62
2022/11/09 07:03:53;;;;;;;25.00;14.78;;;;;;;;;;1736505;81;21049;-62
2022/11/09 07:06:19;;;;;;;21.25;12.80;;;;;;;;;;1760133;81;21052;-63
2022/11/09 07:08:45;;;;;;;24.77;13.28;;;;;;;;;;1747824;81;21084;-63
2022/11/09 07:11:12;;;;;;;16.93;10.95;;;;;;;;;;1741435;81;21586;-63
2022/11/09 07:13:39;;;;;;;17.17;10.98;;;;;;;;;;1756010;81;21008;-63
2022/11/09 07:16:07;;;;;;;17.05;11.20;;;;;;;;;;1743469;82;21559;-63
2022/11/09 07:18:34;;;;;;;17.32;10.65;;;;;;;;;;1727876;83;21052;-63
2022/11/09 07:21:03;;;;;;;19.75;11.63;;;;;;;;;;1708776;82;21077;-63
2022/11/09 07:23:30;;;;;;;20.60;11.10;;;;;;;;;;1699788;84;21170;-63
2022/11/09 07:25:57;;;;;;;17.42;10.75;;;;;;;;;;1694818;84;21041;-63
2022/11/09 07:28:24;;;;;;;19.65;11.08;;;;;;;;;;1733701;81;21083;-62
2022/11/09 07:30:51;;;;;;;18.40;10.20;;;;;;;;;;1723518;81;21670;-62
2022/11/09 07:33:18;;;;;;;19.65;11.33;;;;;;;;;;1756568;81;21052;-61
2022/11/09 07:35:45;;;;;;;14.47;10.15;;;;;;;;;;1746066;81;21547;-61
2022/11/09 07:38:14;;;;;;;15.45;9.38;;;;;;;;;;1749944;81;21111;-62
2022/11/09 07:40:40;;;;;;;13.78;7.85;;;;;;;;;;1717415;83;21066;-62
2022/11/09 07:43:07;;;;;;;14.28;8.73;;;;;;;;;;1701650;83;21089;-62
2022/11/09 07:45:37;;;;;;;18.17;11.68;;;;;;;;;;1693002;83;21548;-62
2022/11/09 07:48:05;;;;;;;14.53;10.30;;;;;;;;;;1715784;82;20988;-62
2022/11/09 07:50:33;;;;;;;14.33;8.53;;;;;;;;;;1739246;82;21533;-62
2022/11/09 07:53:00;;;;;;;12.07;7.75;;;;;;;;;;1776556;79;21068;-61
2022/11/09 07:55:26;;;;;;;12.70;7.70;;;;;;;;;;1773733;80;21587;-61
2022/11/09 07:57:58;;;;;;;11.97;6.75;;;;;;;;;;1773604;79;21040;-62
2022/11/09 08:00:24;;;;;;;10.08;6.75;;;;;;;;;;1769907;80;21522;-62
2022/11/09 08:02:51;;;;;;;12.80;7.83;;;;;;;;;;1762737;80;20983;-63
2022/11/09 08:05:17;;;;;;;11.95;6.90;;;;;;;;;;1760478;80;21025;-63
2022/11/09 08:07:43;;;;;;;13.30;7.00;;;;;;;;;;1766258;81;21041;-64
2022/11/09 08:10:09;;;;;;;12.25;6.80;;;;;;;;;;1732753;82;21040;-61
2022/11/09 08:12:36;;;;;;;12.35;7.10;;;;;;;;;;1782209;80;21035;-62
2022/11/09 08:15:04;;;;;;;14.18;6.67;;;;;;;;;;1777270;79;21065;-63
2022/11/09 08:17:30;;;;;;;11.70;6.83;;;;;;;;;;1766598;79;21539;-62
2022/11/09 08:19:58;;;;;;;9.58;5.70;;;;;;;;;;1775403;80;21057;-63
2022/11/09 08:22:24;;;;;;;8.58;5.67;;;;;;;;;;1760862;80;21032;-63
2022/11/09 08:24:50;;;;;;;9.00;5.08;;;;;;;;;;1775580;80;21037;-62
2022/11/09 08:27:18;;;;;;;8.83;5.50;;;;;;;;;;1777067;79;21105;-62
2022/11/09 08:29:44;;;;;;;8.53;5.55;;;;;;;;;;1767470;79;21550;-62
2022/11/09 08:32:11;;;;;;;8.28;5.30;;;;;;;;;;1766479;80;21120;-62
2022/11/09 08:34:37;;;;;;;8.65;4.85;;;;;;;;;;1740118;82;21520;-62
2022/11/09 08:37:04;;;;;;;9.18;5.03;;;;;;;;;;1724620;82;21045;-62
2022/11/09 08:39:30;;;;;;;8.00;4.75;;;;;;;;;;1725648;82;21513;-63
2022/11/09 08:41:57;;;;;;;6.70;4.50;;;;;;;;;;1775912;80;21033;-62
2022/11/09 08:44:23;;;;;;;6.00;4.12;;;;;;;;;;1778688;81;21022;-63
2022/11/09 08:46:50;;;;;;;7.62;4.75;;;;;;;;;;1769516;81;22169;-62
2022/11/09 08:49:16;;;;;;;8.83;5.00;;;;;;;;;;1722419;82;21070;-62
2022/11/09 08:51:43;;;;;;;7.75;5.00;;;;;;;;;;1697734;83;21124;-64
2022/11/09 08:54:10;;;;;;;7.20;4.53;;;;;;;;;;1702000;83;21089;-64
2022/11/09 08:56:36;;;;;;;8.60;4.80;;;;;;;;;;1731868;82;21512;-63
2022/11/09 08:59:02;;;;;;;7.80;4.72;;;;;;;;;;1735330;82;21105;-63
2022/11/09 09:01:30;;;;;;;7.35;4.55;;;;;;;;;;1723190;82;20982;-65
2022/11/09 09:15:15;;;;;;;5.30;3.67;;;;;;;;;;1788720;78;28057;-65
2022/11/09 09:17:42;;;;;;;5.30;3.92;;;;;;;;;;1784904;80;21014;-65
2022/11/09 09:20:09;;;;;;;6.35;4.30;;;;;;;;;;1784692;80;21097;-66
2022/11/09 09:22:36;;;;;;;6.45;3.98;;;;;;;;;;1792705;80;21059;-66
2022/11/09 09:25:03;;;;;;;6.80;3.60;;;;;;;;;;1792986;79;20985;-65
2022/11/09 09:27:30;;;;;;;7.17;3.58;;;;;;;;;;1789983;79;21017;-66
2022/11/09 09:29:56;;;;;;;6.97;3.80;;;;;;;;;;1812585;79;21589;-67
2022/11/09 09:32:22;;;;;;;4.85;3.37;;;;;;;;;;1792808;80;21008;-68
2022/11/09 09:34:48;;;;;;;7.30;3.80;;;;;;;;;;1797198;79;21048;-68
2022/11/09 09:37:16;;;;;;;6.03;3.45;;;;;;;;;;1790832;79;21108;-67
2022/11/09 09:39:42;;;;;;;4.92;2.92;;;;;;;;;;1786340;80;21004;-66
2022/11/09 09:42:10;;;;;;;5.80;3.20;;;;;;;;;;1793843;80;21057;-67
2022/11/09 09:44:44;;;;;;;4.53;3.05;;;;;;;;;;1796278;78;21008;-66
2022/11/09 09:47:12;;;;;;;5.37;3.37;;;;;;;;;;1795396;78;21039;-66
2022/11/09 09:49:40;;;;;;;5.22;3.00;;;;;;;;;;1808112;78;21052;-66
2022/11/09 09:52:21;;;;;;;6.17;3.72;;;;;;;;;;1789841;78;21469;-66
2022/11/09 09:54:56;;;;;;;6.37;3.98;;;;;;;;;;1802583;78;21052;-67
2022/11/09 09:57:22;;;;;;;4.10;2.52;;;;;;;;;;1795626;78;21071;-67
2022/11/09 09:59:52;;;;;;;4.37;2.70;;;;;;;;;;1793837;78;21045;-67
2022/11/09 10:02:20;;;;;;;5.60;2.85;;;;;;;;;;1811410;78;21225;-67
2022/11/09 10:04:46;;;;;;;5.90;3.08;;;;;;;;;;1782962;78;21057;-66
2022/11/09 10:07:16;;;;;;;4.75;2.80;;;;;;;;;;1805380;78;20996;-67
2022/11/09 10:09:44;;;;;;;5.12;2.85;;;;;;;;;;1784552;78;21091;-67
2022/11/09 10:12:18;;;;;;;5.33;2.87;;;;;;;;;;1801728;78;21025;-67
2022/11/09 10:14:47;;;;;;;6.15;3.17;;;;;;;;;;1788852;78;22116;-66
2022/11/09 10:17:34;;;;;;;5.05;3.05;;;;;;;;;;1801319;79;21056;-67
2022/11/09 10:20:07;;;;;;;6.25;3.20;;;;;;;;;;1801607;78;21097;-66
2022/11/09 10:22:47;;;;;;;6.17;3.00;;;;;;;;;;1810230;78;21079;-66
2022/11/09 10:25:15;;;;;;;4.87;3.08;;;;;;;;;;1814062;78;21052;-66
2022/11/09 10:27:43;;;;;;;4.40;2.83;;;;;;;;;;1815135;78;20997;-67
2022/11/09 10:30:13;;;;;;;4.25;3.10;;;;;;;;;;1805624;78;21544;-67
2022/11/09 10:32:40;;;;;;;7.03;3.45;;;;;;;;;;1797214;78;20970;-66
2022/11/09 10:35:08;;;;;;;5.72;3.37;;;;;;;;;;1808892;78;21087;-67
2022/11/09 10:37:37;;;;;;;5.03;3.62;;;;;;;;;;1820419;78;21043;-64
2022/11/09 10:40:09;;;;;;;6.85;3.90;;;;;;;;;;1800905;78;21451;-65
2022/11/09 10:43:00;;;;;;;5.22;3.22;;;;;;;;;;1813523;78;21345;-65
2022/11/09 10:45:46;;;;;;;9.60;3.25;;;;;;;;;;1814056;78;20988;-68
2022/11/09 10:48:33;;;;;;;6.05;3.05;;;;;;;;;;1787888;78;20996;-64
2022/11/09 10:51:29;;;;;;;5.53;2.95;;;;;;;;;;1824301;77;21039;-66
2022/11/09 10:54:27;;;;;;;5.80;3.25;;;;;;;;;;1817229;78;21083;-66
2022/11/09 10:57:23;;;;;;;6.10;2.90;;;;;;;;;;1815736;78;20980;-66
2022/11/09 11:00:15;;;;;;;4.33;2.87;;;;;;;;;;1816212;78;21605;-66
2022/11/09 11:03:01;;;;;;;4.97;2.52;;;;;;;;;;1815150;78;21036;-67
2022/11/09 11:05:46;;;;;;;5.62;2.80;;;;;;;;;;1794325;78;21072;-66
2022/11/09 11:08:36;;;;;;;4.55;3.00;;;;;;;;;;1800308;78;20993;-65
2022/11/09 11:11:23;;;;;;;7.45;3.00;;;;;;;;;;1816223;78;21037;-66
2022/11/09 11:14:10;;;;;;;3.95;2.65;;;;;;;;;;1818171;77;21472;-66
2022/11/09 11:16:55;;;;;;;5.22;2.75;;;;;;;;;;1795849;78;21051;-68
2022/11/09 11:19:41;;;;;;;4.25;2.95;;;;;;;;;;1809411;77;20996;-67
2022/11/09 11:22:26;;;;;;;5.03;2.60;;;;;;;;;;1811384;77;21050;-66
2022/11/09 11:25:18;;;;;;;6.70;3.15;;;;;;;;;;1809546;77;21056;-66
2022/11/09 11:28:16;;;;;;;5.17;2.87;;;;;;;;;;1814846;77;20976;-68
2022/11/09 11:31:01;;;;;;;5.90;2.72;;;;;;;;;;1822108;77;21012;-68
2022/11/09 11:33:46;;;;;;;4.67;2.55;;;;;;;;;;1804293;77;21063;-67
2022/11/09 11:36:56;;;;;;;5.03;2.50;;;;;;;;;;1790010;79;21131;-69
2022/11/09 11:39:53;;;;;;;5.50;2.90;;;;;;;;;;1809548;79;21056;-68
2022/11/09 11:42:44;;;;;;;6.67;3.10;;;;;;;;;;1820249;79;21020;-68
2022/11/09 11:45:33;;;;;;;5.10;2.72;;;;;;;;;;1773227;79;21039;-68
2022/11/09 11:48:24;;;;;;;5.72;3.00;;;;;;;;;;1815029;79;21471;-67
2022/11/09 11:51:14;;;;;;;6.20;3.20;;;;;;;;;;1795090;78;21799;-68
2022/11/09 11:54:17;;;;;;;7.05;3.17;;;;;;;;;;1797471;79;21123;-68
2022/11/09 11:57:19;;;;;;;6.10;3.37;;;;;;;;;;1792364;79;21000;-68
2022/11/09 12:00:12;;;;;;;4.53;2.92;;;;;;;;;;1794438;79;21012;-68
2022/11/09 12:03:04;;;;;;;6.10;2.83;;;;;;;;;;1800652;79;20992;-68
2022/11/09 12:06:03;;;;;;;7.70;4.45;;;;;;;;;;1807751;79;21114;-68
2022/11/09 12:08:52;;;;;;;5.90;3.33;;;;;;;;;;1807184;79;21000;-68
2022/11/09 12:11:48;;;;;;;5.60;3.17;;;;;;;;;;1800802;79;21023;-68
2022/11/09 12:14:54;;;;;;;5.60;3.20;;;;;;;;;;1789775;79;21048;-67
2022/11/09 12:17:44;;;;;;;7.47;3.70;;;;;;;;;;1799785;79;20988;-69
2022/11/09 12:20:30;;;;;;;6.42;3.37;;;;;;;;;;1751232;81;21020;-69
2022/11/09 12:23:29;;;;;;;8.48;3.42;;;;;;;;;;1757748;80;21537;-69
2022/11/09 12:26:31;;;;;;;5.80;3.72;;;;;;;;;;1778550;80;21051;-69
2022/11/09 12:29:20;;;;;;;7.12;3.92;;;;;;;;;;1786532;80;21042;-69
2022/11/09 12:32:17;;;;;;;7.47;4.20;;;;;;;;;;1799387;80;21055;-68
2022/11/09 12:35:21;;;;;;;5.90;4.00;;;;;;;;;;1708689;80;21038;-71
2022/11/09 12:38:13;;;;;;;9.48;4.08;;;;;;;;;;1778445;80;21003;-66
2022/11/09 12:41:03;;;;;;;11.22;4.62;;;;;;;;;;1789898;80;21000;-68
2022/11/09 12:43:53;;;;;;;6.50;4.10;;;;;;;;;;1795170;80;21022;-68
2022/11/09 12:46:39;;;;;;;7.95;4.15;;;;;;;;;;1788197;80;20948;-68
2022/11/09 12:49:37;;;;;;;7.33;3.90;;;;;;;;;;1772452;80;21056;-67
2022/11/09 12:52:25;;;;;;;7.42;4.00;;;;;;;;;;1771883;80;21014;-68
2022/11/09 12:55:14;;;;;;;7.53;4.53;;;;;;;;;;1780832;80;21031;-67
2022/11/09 12:57:58;;;;;;;8.98;5.17;;;;;;;;;;1784008;80;21011;-68
2022/11/09 13:00:45;;;;;;;11.65;5.62;;;;;;;;;;1800573;80;21542;-68
2022/11/09 13:03:30;;;;;;;11.80;6.62;;;;;;;;;;1788321;80;21035;-66
2022/11/09 13:06:17;;;;;;;10.63;5.08;;;;;;;;;;1775868;80;21015;-66
2022/11/09 13:09:09;;;;;;;11.35;5.25;;;;;;;;;;1773685;80;21011;-65
2022/11/09 13:11:55;;;;;;;8.73;5.95;;;;;;;;;;1803073;79;21103;-66
2022/11/09 13:14:39;;;;;;;8.30;5.65;;;;;;;;;;1791830;78;21012;-67
2022/11/09 13:17:27;;;;;;;8.63;4.65;;;;;;;;;;1803345;79;21063;-67
2022/11/09 13:20:32;;;;;;;11.12;5.67;;;;;;;;;;1804230;79;21577;-67
2022/11/09 13:23:34;;;;;;;11.22;6.05;;;;;;;;;;1797802;79;21016;-69
2022/11/09 13:26:33;;;;;;;9.13;5.28;;;;;;;;;;1767274;81;21054;-67
2022/11/09 13:29:20;;;;;;;10.03;5.10;;;;;;;;;;1772740;80;21467;-67
2022/11/09 13:32:15;;;;;;;12.47;7.78;;;;;;;;;;1742299;81;21562;-67
2022/11/09 13:35:01;;;;;;;12.47;7.28;;;;;;;;;;1782660;78;21076;-67
2022/11/09 13:37:49;;;;;;;10.40;6.25;;;;;;;;;;1756863;80;20990;-68
2022/11/09 13:40:38;;;;;;;8.85;5.72;;;;;;;;;;1759433;81;21051;-67
2022/11/09 13:43:24;;;;;;;8.10;5.25;;;;;;;;;;1772261;80;21062;-67
2022/11/09 13:46:13;;;;;;;9.05;5.15;;;;;;;;;;1762282;81;21156;-67
2022/11/09 13:48:57;;;;;;;14.47;6.28;;;;;;;;;;1775541;80;21025;-68
2022/11/09 13:51:45;;;;;;;9.25;5.50;;;;;;;;;;1782343;80;21043;-68
2022/11/09 13:54:31;;;;;;;11.88;5.85;;;;;;;;;;1772266;80;20991;-68
2022/11/09 13:57:16;;;;;;;9.55;5.78;;;;;;;;;;1783447;80;21062;-66
2022/11/09 14:00:01;;;;;;;12.50;6.30;;;;;;;;;;1775382;80;21504;-66
2022/11/09 14:02:54;;;;;;;13.48;6.25;;;;;;;;;;1792380;80;21011;-65
2022/11/09 14:05:40;;;;;;;10.10;6.22;;;;;;;;;;1800264;79;20973;-67
2022/11/09 14:08:26;;;;;;;12.18;6.83;;;;;;;;;;1814668;77;21008;-66
2022/11/09 14:11:31;;;;;;;11.05;7.65;;;;;;;;;;1813151;77;21551;-67
2022/11/09 14:14:32;;;;;;;14.63;6.70;;;;;;;;;;1813139;77;21467;-66
2022/11/09 14:17:38;;;;;;;14.87;6.87;;;;;;;;;;1812882;79;21047;-66
2022/11/09 14:20:34;;;;;;;12.40;7.33;;;;;;;;;;1811758;79;21071;-67
2022/11/09 14:23:19;;;;;;;12.18;7.58;;;;;;;;;;1809331;79;21536;-66
2022/11/09 14:26:12;;;;;;;12.75;8.15;;;;;;;;;;1812434;79;21015;-67
2022/11/09 14:39:58;;;;;;;19.17;10.82;;;;;;;;;;1803750;79;28183;-66
2022/11/09 14:42:47;;;;;;;19.85;11.93;;;;;;;;;;1779849;78;20996;-66
2022/11/09 14:45:32;;;;;;;16.55;10.05;;;;;;;;;;1785109;79;21044;-65
2022/11/09 14:48:19;;;;;;;16.27;9.63;;;;;;;;;;1788923;78;21036;-65
2022/11/09 14:51:04;;;;;;;16.82;8.90;;;;;;;;;;1777832;78;21060;-66
2022/11/09 14:53:49;;;;;;;15.20;8.83;;;;;;;;;;1718279;83;21020;-67
2022/11/09 14:56:34;;;;;;;15.68;9.78;;;;;;;;;;1753332;81;21012;-67
2022/11/09 14:59:27;;;;;;;16.82;9.43;;;;;;;;;;1755335;80;21021;-67
2022/11/09 15:02:13;;;;;;;16.77;10.38;;;;;;;;;;1748324;80;21037;-69
2022/11/09 15:05:00;;;;;;;17.25;10.20;;;;;;;;;;1734719;81;21050;-66
2022/11/09 15:07:47;;;;;;;15.05;9.93;;;;;;;;;;1751627;81;21031;-66
2022/11/09 15:10:31;;;;;;;24.92;14.58;;;;;;;;;;1758092;80;21036;-66
2022/11/09 15:13:28;;;;;;;18.10;10.35;;;;;;;;;;1715076;82;21063;-65
2022/11/09 15:16:21;;;;;;;17.27;10.78;;;;;;;;;;1747198;80;21647;-65
2022/11/09 15:19:05;;;;;;;16.73;10.20;;;;;;;;;;1745847;80;21071;-65
2022/11/09 15:21:49;;;;;;;17.60;10.88;;;;;;;;;;1731033;80;21060;-65
2022/11/09 15:24:36;;;;;;;18.05;10.15;;;;;;;;;;1754658;80;21168;-66
2022/11/09 15:27:31;;;;;;;23.00;11.95;;;;;;;;;;1747864;80;21467;-67
2022/11/09 15:30:30;;;;;;;20.70;10.63;;;;;;;;;;1751246;80;21582;-65
2022/11/09 15:33:18;;;;;;;18.65;10.95;;;;;;;;;;1695419;84;21110;-66
2022/11/09 15:36:05;;;;;;;20.20;10.20;;;;;;;;;;1709505;83;21035;-66
2022/11/09 15:38:58;;;;;;;19.67;12.07;;;;;;;;;;1712807;83;21039;-66
2022/11/09 15:41:43;;;;;;;20.35;11.33;;;;;;;;;;1715184;83;21040;-66
2022/11/09 15:44:28;;;;;;;26.82;14.20;;;;;;;;;;1715017;83;21099;-66
2022/11/09 15:47:16;;;;;;;22.22;13.93;;;;;;;;;;1713067;83;21055;-65
2022/11/09 15:50:02;;;;;;;20.17;11.38;;;;;;;;;;1701072;83;21036;-66
2022/11/09 15:52:47;;;;;;;18.90;11.22;;;;;;;;;;1705749;83;21531;-67
2022/11/09 15:55:33;;;;;;;16.80;9.80;;;;;;;;;;1711091;83;21067;-66
2022/11/09 15:58:18;;;;;;;18.85;10.88;;;;;;;;;;1709401;83;21052;-66
2022/11/09 16:01:03;;;;;;;21.42;12.58;;;;;;;;;;1704236;83;21043;-65
2022/11/09 16:03:48;;;;;;;20.27;11.68;;;;;;;;;;1712729;83;20993;-66
2022/11/09 16:06:32;;;;;;;20.50;11.45;;;;;;;;;;1717640;83;21032;-65
2022/11/09 16:09:18;;;;;;;18.17;10.60;;;;;;;;;;1699131;83;21012;-66
2022/11/09 16:12:03;;;;;;;22.22;11.90;;;;;;;;;;1717755;83;21035;-66
2022/11/09 16:14:48;;;;;;;21.33;11.88;;;;;;;;;;1720245;83;21487;-66
2022/11/09 16:17:33;;;;;;;23.27;11.83;;;;;;;;;;1696025;83;21015;-65
2022/11/09 16:20:18;;;;;;;21.68;11.80;;;;;;;;;;1715031;83;21036;-66
2022/11/09 16:23:02;;;;;;;24.20;13.80;;;;;;;;;;1704843;83;20992;-65